createdAt,value
2023-01-12T00:01:42.536Z,-6.39
2023-01-12T00:04:12.489Z,-6.37
2023-01-12T00:06:39.858Z,-6.34
2023-01-12T00:09:07.770Z,-6.35
2023-01-12T00:11:35.763Z,-6.31
2023-01-12T00:14:03.312Z,-6.27
2023-01-12T00:16:39.598Z,-6.23
2023-01-12T00:19:11.627Z,-6.22
2023-01-12T00:21:58.326Z,-6.23
2023-01-12T00:24:26.495Z,-6.25
2023-01-12T00:26:53.913Z,-6.28
2023-01-12T00:29:21.549Z,-6.31
2023-01-12T00:31:48.596Z,-6.33
2023-01-12T00:34:16.087Z,-6.33
2023-01-12T00:36:43.421Z,-6.33
2023-01-12T00:39:10.869Z,-6.32
2023-01-12T00:41:57.048Z,-6.32
2023-01-12T00:44:42.637Z,-6.33
2023-01-12T00:47:10.291Z,-6.32
2023-01-12T00:49:42.252Z,-6.32
2023-01-12T00:52:24.935Z,-6.34
2023-01-12T00:54:56.852Z,-6.31
2023-01-12T00:57:23.851Z,-6.36
2023-01-12T00:59:51.810Z,-6.38
2023-01-12T01:02:18.884Z,-6.40
2023-01-12T01:04:45.921Z,-6.40
2023-01-12T01:07:13.528Z,-6.41
2023-01-12T01:09:40.572Z,-6.40
2023-01-12T01:12:07.882Z,-6.39
2023-01-12T01:14:34.931Z,-6.37
2023-01-12T01:17:02.002Z,-6.34
2023-01-12T01:19:29.049Z,-6.32
2023-01-12T01:21:56.207Z,-6.31
2023-01-12T01:24:23.940Z,-6.31
2023-01-12T01:26:51.700Z,-6.36
2023-01-12T01:29:19.005Z,-6.39
2023-01-12T01:31:47.857Z,-6.40
2023-01-12T01:34:15.230Z,-6.44
2023-01-12T01:36:42.916Z,-6.46
2023-01-12T01:39:10.187Z,-6.48
2023-01-12T01:41:42.789Z,-6.46
2023-01-12T01:44:29.355Z,-6.44
2023-01-12T01:47:01.236Z,-6.39
2023-01-12T01:49:31.377Z,-6.34
2023-01-12T01:52:02.010Z,-6.33
2023-01-12T01:54:31.214Z,-6.31
2023-01-12T01:56:58.465Z,-6.31
2023-01-12T01:59:28.566Z,-6.30
2023-01-12T02:01:56.486Z,-6.27
2023-01-12T02:04:25.851Z,-6.28
2023-01-12T02:06:55.087Z,-6.29
2023-01-12T02:09:24.415Z,-6.30
2023-01-12T02:12:13.549Z,-6.29
2023-01-12T02:15:00.034Z,-6.31
2023-01-12T02:17:45.737Z,-6.34
2023-01-12T02:20:31.147Z,-6.38
2023-01-12T02:22:58.062Z,-6.38
2023-01-12T02:25:35.372Z,-6.36
2023-01-12T02:28:20.970Z,-6.33
2023-01-12T02:31:00.222Z,-6.33
2023-01-12T02:33:39.638Z,-6.33
2023-01-12T02:36:15.701Z,-6.33
2023-01-12T02:39:05.945Z,-6.34
2023-01-12T02:42:29.812Z,-6.34
2023-01-12T02:45:05.692Z,-6.33
2023-01-12T02:47:35.690Z,-6.32
2023-01-12T02:50:06.656Z,-6.32
2023-01-12T02:52:34.579Z,-6.38
2023-01-12T02:55:02.875Z,-6.42
2023-01-12T02:57:32.000Z,-6.45
2023-01-12T03:00:00.390Z,-6.46
2023-01-12T03:02:28.163Z,-6.45
2023-01-12T03:04:55.413Z,-6.47
2023-01-12T03:07:52.955Z,-6.48
2023-01-12T03:10:20.029Z,-6.51
2023-01-12T03:12:49.152Z,-6.50
2023-01-12T03:15:17.607Z,-6.46
2023-01-12T03:17:54.280Z,-6.46
2023-01-12T03:20:26.483Z,-6.46
2023-01-12T03:22:57.973Z,-6.45
2023-01-12T03:25:26.734Z,-6.46
2023-01-12T03:27:57.862Z,-6.45
2023-01-12T03:30:31.854Z,-6.47
2023-01-12T03:32:59.089Z,-6.49
2023-01-12T03:35:27.797Z,-6.51
2023-01-12T03:37:58.176Z,-6.49
2023-01-12T03:40:31.971Z,-6.49
2023-01-12T03:43:10.872Z,-6.51
2023-01-12T03:45:58.886Z,-6.50
2023-01-12T03:48:29.649Z,-6.46
2023-01-12T03:51:04.895Z,-6.44
2023-01-12T03:53:33.349Z,-6.43
2023-01-12T03:56:04.591Z,-6.42
2023-01-12T03:58:34.926Z,-6.42
2023-01-12T04:01:02.599Z,-6.39
2023-01-12T04:03:30.053Z,-6.35
2023-01-12T04:05:57.142Z,-6.28
2023-01-12T04:08:24.169Z,-6.22
2023-01-12T04:10:51.111Z,-6.24
2023-01-12T04:13:18.153Z,-6.27
2023-01-12T04:15:48.506Z,-6.25
2023-01-12T04:18:15.551Z,-6.28
2023-01-12T04:20:47.180Z,-6.30
2023-01-12T04:23:14.087Z,-6.31
2023-01-12T04:25:41.255Z,-6.34
2023-01-12T04:28:08.606Z,-6.29
2023-01-12T04:30:42.868Z,-6.30
2023-01-12T04:33:14.348Z,-6.31
2023-01-12T04:36:03.460Z,-6.33
2023-01-12T04:38:34.497Z,-6.35
2023-01-12T04:41:43.610Z,-6.40
2023-01-12T04:45:10.468Z,-6.40
2023-01-12T04:51:49.017Z,-6.35
2023-01-12T04:54:25.333Z,-6.29
2023-01-12T04:56:55.191Z,-6.28
2023-01-12T04:59:38.463Z,-6.29
2023-01-12T05:02:14.632Z,-6.27
2023-01-12T05:04:42.792Z,-6.26
2023-01-12T05:07:12.298Z,-6.27
2023-01-12T05:09:58.145Z,-6.31
2023-01-12T05:12:37.547Z,-6.30
2023-01-12T05:15:05.231Z,-6.26
2023-01-12T05:17:40.155Z,-6.24
2023-01-12T05:20:17.921Z,-6.22
2023-01-12T05:22:51.944Z,-6.28
2023-01-12T05:25:23.151Z,-6.32
2023-01-12T05:28:10.824Z,-6.35
2023-01-12T05:30:43.428Z,-6.40
2023-01-12T05:33:30.761Z,-6.42
2023-01-12T05:36:33.226Z,-6.47
2023-01-12T05:39:00.895Z,-6.48
2023-01-12T05:42:22.234Z,-6.49
2023-01-12T05:44:53.770Z,-6.46
2023-01-12T05:47:23.373Z,-6.45
2023-01-12T05:49:52.941Z,-6.47
2023-01-12T05:52:29.951Z,-6.58
2023-01-12T05:55:01.831Z,-6.68
2023-01-12T05:57:31.478Z,-6.81
2023-01-12T05:59:58.765Z,-6.91
2023-01-12T06:02:29.765Z,-7.00
2023-01-12T06:04:57.342Z,-7.10
2023-01-12T06:07:27.355Z,-7.15
2023-01-12T06:10:01.263Z,-7.23
2023-01-12T06:12:55.149Z,-7.27
2023-01-12T06:15:25.568Z,-7.33
2023-01-12T06:17:52.747Z,-7.38
2023-01-12T06:20:24.211Z,-7.43
2023-01-12T06:22:54.789Z,-7.49
2023-01-12T06:25:40.690Z,-7.52
2023-01-12T06:28:11.575Z,-7.54
2023-01-12T06:30:39.375Z,-7.57
2023-01-12T06:33:06.965Z,-7.62
2023-01-12T06:35:36.831Z,-7.71
2023-01-12T06:38:04.052Z,-7.76
2023-01-12T06:40:34.795Z,-7.77
2023-01-12T06:43:02.889Z,-7.76
2023-01-12T06:49:07.091Z,-7.79
2023-01-12T06:51:49.379Z,-7.84
2023-01-12T06:54:22.490Z,-7.86
2023-01-12T06:56:56.060Z,-7.89
2023-01-12T06:59:32.216Z,-7.91
2023-01-12T07:05:02.752Z,-7.87
2023-01-12T07:08:09.457Z,-7.83
2023-01-12T07:10:39.519Z,-7.79
2023-01-12T07:13:14.969Z,-7.75
2023-01-12T07:15:42.360Z,-7.71
2023-01-12T07:18:41.712Z,-7.72
2023-01-12T07:21:12.257Z,-7.73
2023-01-12T07:23:48.216Z,-7.73
2023-01-12T07:29:40.180Z,-7.70
2023-01-12T07:32:14.944Z,-7.68
2023-01-12T07:34:42.587Z,-7.71
2023-01-12T07:37:13.225Z,-7.72
2023-01-12T07:39:40.257Z,-7.72
2023-01-12T07:42:26.031Z,-7.72
2023-01-12T07:45:00.270Z,-7.71
2023-01-12T07:47:28.386Z,-7.71
2023-01-12T07:50:02.153Z,-7.68
2023-01-12T07:52:32.948Z,-7.67
2023-01-12T07:55:09.966Z,-7.65
2023-01-12T07:57:37.671Z,-7.62
2023-01-12T08:00:13.459Z,-7.63
2023-01-12T08:02:53.293Z,-7.63
2023-01-12T08:05:21.105Z,-7.61
2023-01-12T08:07:55.958Z,-7.60
2023-01-12T08:10:25.967Z,-7.61
2023-01-12T08:13:00.025Z,-7.55
2023-01-12T08:15:35.112Z,-7.50
2023-01-12T08:18:24.941Z,-7.44
2023-01-12T08:21:04.062Z,-7.45
2023-01-12T08:26:36.323Z,-7.33
2023-01-12T08:29:38.419Z,-7.30
2023-01-12T08:32:13.446Z,-7.23
2023-01-12T08:34:48.944Z,-7.22
2023-01-12T08:37:21.498Z,-7.23
2023-01-12T08:40:00.628Z,-7.23
2023-01-12T08:42:30.239Z,-7.22
2023-01-12T08:45:04.360Z,-7.19
2023-01-12T08:47:37.105Z,-7.13
2023-01-12T08:50:07.613Z,-7.07
2023-01-12T08:52:35.128Z,-7.08
2023-01-12T08:55:05.211Z,-7.11
2023-01-12T08:57:35.635Z,-7.11
2023-01-12T09:00:14.163Z,-7.09
2023-01-12T09:02:41.569Z,-7.07
2023-01-12T09:05:15.446Z,-7.09
2023-01-12T09:07:44.829Z,-7.10
2023-01-12T09:10:21.929Z,-7.07
2023-01-12T09:12:54.167Z,-7.05
2023-01-12T09:15:27.597Z,-7.13
2023-01-12T09:18:13.192Z,-7.13
2023-01-12T09:20:43.527Z,-7.09
2023-01-12T09:23:16.854Z,-7.07
2023-01-12T09:25:55.015Z,-7.02
2023-01-12T09:28:25.996Z,-6.95
2023-01-12T09:30:56.154Z,-6.88
2023-01-12T09:33:30.984Z,-6.81
2023-01-12T09:36:06.725Z,-6.78
2023-01-12T09:38:45.650Z,-6.78
2023-01-12T09:41:20.178Z,-6.80
2023-01-12T09:44:06.116Z,-6.80
2023-01-12T09:46:58.857Z,-6.78
2023-01-12T09:49:42.612Z,-6.74
2023-01-12T09:52:09.523Z,-6.71
2023-01-12T09:54:44.093Z,-6.69
2023-01-12T09:57:35.062Z,-6.67
2023-01-12T10:00:05.779Z,-6.64
2023-01-12T10:02:48.158Z,-6.58
2023-01-12T10:05:22.037Z,-6.56
2023-01-12T10:08:02.538Z,-6.56
2023-01-12T10:10:46.878Z,-6.50
2023-01-12T10:13:19.249Z,-6.43
2023-01-12T10:15:58.836Z,-6.39
2023-01-12T10:18:52.400Z,-6.32
2023-01-12T10:21:45.531Z,-6.31
2023-01-12T10:24:13.766Z,-6.31
2023-01-12T10:26:46.796Z,-6.32
2023-01-12T10:29:14.433Z,-6.29
2023-01-12T10:31:41.620Z,-6.26
2023-01-12T10:34:14.647Z,-6.28
2023-01-12T10:36:49.413Z,-6.30
2023-01-12T10:39:33.267Z,-6.28
2023-01-12T10:42:35.397Z,-6.28
2023-01-12T10:45:14.414Z,-6.29
2023-01-12T10:47:44.692Z,-6.32
2023-01-12T10:50:29.466Z,-6.32
2023-01-12T10:53:01.066Z,-6.24
2023-01-12T10:55:39.280Z,-6.19
2023-01-12T10:58:29.786Z,-6.15
2023-01-12T11:01:00.348Z,-6.14
2023-01-12T11:03:31.295Z,-6.12
2023-01-12T11:06:38.423Z,-6.11
2023-01-12T11:09:21.019Z,-6.11
2023-01-12T11:11:52.827Z,-6.12
2023-01-12T11:14:40.061Z,-6.14
2023-01-12T11:17:49.532Z,-6.11
2023-01-12T11:20:34.410Z,-6.05
2023-01-12T11:23:13.013Z,-6.02
2023-01-12T11:26:00.414Z,-6.00
2023-01-12T11:28:42.100Z,-5.99
2023-01-12T11:34:00.569Z,-5.94
2023-01-12T11:36:41.637Z,-5.93
2023-01-12T11:39:17.112Z,-5.91
2023-01-12T11:42:19.024Z,-5.91
2023-01-12T11:45:05.436Z,-5.89
2023-01-12T11:47:40.898Z,-5.90
2023-01-12T11:50:28.600Z,-5.90
2023-01-12T11:52:59.362Z,-5.91
2023-01-12T11:55:48.344Z,-5.93
2023-01-12T11:58:19.454Z,-5.98
2023-01-12T12:01:07.805Z,-6.01
2023-01-12T12:03:44.072Z,-5.97
2023-01-12T12:06:23.731Z,-5.95
2023-01-12T12:09:20.268Z,-5.99
2023-01-12T12:11:47.487Z,-5.99
2023-01-12T12:14:30.035Z,-6.02
2023-01-12T12:16:59.311Z,-6.06
2023-01-12T12:19:29.560Z,-6.07
2023-01-12T12:22:02.979Z,-6.12
2023-01-12T12:24:36.247Z,-6.15
2023-01-12T12:27:10.621Z,-6.25
2023-01-12T12:29:56.705Z,-6.30
2023-01-12T12:32:30.660Z,-6.34
2023-01-12T12:35:19.017Z,-6.37
2023-01-12T12:37:58.834Z,-6.40
2023-01-12T12:41:02.987Z,-6.41
2023-01-12T12:43:56.065Z,-6.42
2023-01-12T12:46:44.037Z,-6.46
2023-01-12T12:49:20.866Z,-6.51
2023-01-12T12:51:51.350Z,-6.52
2023-01-12T12:54:19.637Z,-6.55
2023-01-12T12:56:51.136Z,-6.58
2023-01-12T12:59:34.077Z,-6.59
2023-01-12T13:02:02.618Z,-6.62
2023-01-12T13:04:43.163Z,-6.62
2023-01-12T13:07:16.997Z,-6.61
2023-01-12T13:09:44.945Z,-6.62
2023-01-12T13:15:20.901Z,-6.67
2023-01-12T13:17:54.792Z,-6.68
2023-01-12T13:20:34.934Z,-6.68
2023-01-12T13:23:03.330Z,-6.70
2023-01-12T13:25:35.320Z,-6.71
2023-01-12T13:28:22.063Z,-6.71
2023-01-12T13:34:32.084Z,-6.72
2023-01-12T13:37:26.401Z,-6.74
2023-01-12T13:40:35.828Z,-6.76
2023-01-12T13:43:32.612Z,-6.76
2023-01-12T13:50:16.140Z,-6.79
2023-01-12T13:52:55.843Z,-6.78
2023-01-12T14:03:01.126Z,-6.69
2023-01-12T14:06:03.041Z,-6.66
2023-01-12T14:08:51.286Z,-6.65
2023-01-12T14:11:47.162Z,-6.64
2023-01-12T14:15:18.723Z,-6.64
2023-01-12T14:18:00.921Z,-6.63
2023-01-12T14:20:31.002Z,-6.60
2023-01-12T14:23:17.207Z,-6.57
2023-01-12T14:25:48.538Z,-6.57
2023-01-12T14:28:34.683Z,-6.56
2023-01-12T14:34:49.726Z,-6.48
2023-01-12T14:38:07.861Z,-6.49
2023-01-12T14:41:38.614Z,-6.54
2023-01-12T14:48:37.233Z,-6.68
2023-01-12T14:51:26.622Z,-6.74
2023-01-12T14:54:01.381Z,-6.78
2023-01-12T14:56:33.537Z,-6.80
2023-01-12T14:59:14.428Z,-6.80
2023-01-12T15:01:42.195Z,-6.78
2023-01-12T15:04:15.151Z,-6.75
2023-01-12T15:06:43.509Z,-6.71
2023-01-12T15:09:25.063Z,-6.68
2023-01-12T15:14:40.260Z,-6.55
2023-01-12T15:17:26.018Z,-6.48
2023-01-12T15:20:20.392Z,-6.43
2023-01-12T15:23:12.956Z,-6.38
2023-01-12T15:25:42.805Z,-6.32
2023-01-12T15:32:56.916Z,-6.26
2023-01-12T15:35:38.531Z,-6.21
2023-01-12T15:38:05.452Z,-6.20
2023-01-12T15:40:34.553Z,-6.19
2023-01-12T15:43:04.999Z,-6.16
2023-01-12T15:45:51.711Z,-6.15
2023-01-12T15:48:19.142Z,-6.14
2023-01-12T15:50:47.974Z,-6.13
2023-01-12T15:53:19.802Z,-6.13
2023-01-12T15:55:50.175Z,-6.14
2023-01-12T15:58:22.832Z,-6.13
2023-01-12T16:00:55.463Z,-6.11
2023-01-12T16:03:54.569Z,-6.15
2023-01-12T16:06:35.168Z,-6.16
2023-01-12T16:09:12.968Z,-6.12
2023-01-12T16:11:40.537Z,-6.10
2023-01-12T16:14:08.313Z,-6.07
2023-01-12T16:16:47.044Z,-6.07
2023-01-12T16:19:21.435Z,-6.04
2023-01-12T16:22:13.633Z,-6.03
2023-01-12T16:24:41.014Z,-6.02
2023-01-12T16:27:08.377Z,-5.99
2023-01-12T16:29:42.551Z,-5.96
2023-01-12T16:32:13.940Z,-5.96
2023-01-12T16:34:57.381Z,-5.95
2023-01-12T16:37:34.970Z,-5.96
2023-01-12T16:40:05.068Z,-5.94
2023-01-12T16:42:32.736Z,-5.92
2023-01-12T16:45:08.800Z,-5.90
2023-01-12T16:47:37.117Z,-5.91
2023-01-12T16:50:05.676Z,-5.90
2023-01-12T16:55:33.453Z,-5.86
2023-01-12T16:58:14.524Z,-5.83
2023-01-12T17:01:28.040Z,-5.78
2023-01-12T17:03:38.867Z,-5.75
2023-01-12T17:06:10.212Z,-5.75
2023-01-12T17:08:37.828Z,-5.74
2023-01-12T17:11:15.461Z,-5.75
2023-01-12T17:17:11.676Z,-5.75
2023-01-12T17:19:41.507Z,-5.76
2023-01-12T17:22:21.116Z,-5.74
2023-01-12T17:24:48.709Z,-5.73
2023-01-12T17:27:16.219Z,-5.71
2023-01-12T17:29:44.179Z,-5.73
2023-01-12T17:32:25.111Z,-5.74
2023-01-12T17:34:56.463Z,-5.74
2023-01-12T17:37:23.569Z,-5.74
2023-01-12T17:39:57.059Z,-5.73
2023-01-12T17:42:48.595Z,-5.75
2023-01-12T17:45:22.551Z,-5.75
2023-01-12T17:47:52.868Z,-5.76
2023-01-12T17:50:52.713Z,-5.74
2023-01-12T17:53:34.529Z,-5.73
2023-01-12T17:56:14.492Z,-5.73
2023-01-12T17:58:47.257Z,-5.72
2023-01-12T18:01:33.763Z,-5.70
2023-01-12T18:04:50.618Z,-5.68
2023-01-12T18:08:16.707Z,-5.67
2023-01-12T18:10:46.867Z,-5.69
2023-01-12T18:13:46.258Z,-5.70
2023-01-12T18:24:08.238Z,-5.67
2023-01-12T18:26:41.104Z,-5.65
2023-01-12T18:29:21.202Z,-5.64
2023-01-12T18:32:04.100Z,-5.67
2023-01-12T18:34:38.463Z,-5.68
2023-01-12T18:37:19.008Z,-5.66
2023-01-12T18:40:06.827Z,-5.65
2023-01-12T18:43:16.431Z,-5.64
2023-01-12T18:46:42.375Z,-5.60
2023-01-12T18:49:52.841Z,-5.56
2023-01-12T18:56:05.118Z,-5.57
2023-01-12T18:58:42.906Z,-5.58
2023-01-12T19:02:05.282Z,-5.58
2023-01-12T19:05:23.995Z,-5.56
2023-01-12T19:11:33.123Z,-5.54
2023-01-12T19:14:28.046Z,-5.54
2023-01-12T19:17:17.875Z,-5.56
2023-01-12T19:19:47.802Z,-5.55
2023-01-12T19:22:35.435Z,-5.56
2023-01-12T19:25:24.309Z,-5.56
2023-01-12T19:28:09.993Z,-5.55
2023-01-12T19:30:41.636Z,-5.53
2023-01-12T19:33:17.831Z,-5.50
2023-01-12T19:35:50.807Z,-5.46
2023-01-12T19:38:20.965Z,-5.43
2023-01-12T19:40:55.639Z,-5.36
2023-01-12T19:43:28.743Z,-5.31
2023-01-12T19:46:01.225Z,-5.29
2023-01-12T19:48:32.499Z,-5.28
2023-01-12T19:51:11.425Z,-5.35
2023-01-12T19:53:41.727Z,-5.42
2023-01-12T19:56:13.111Z,-5.47
2023-01-12T19:58:47.634Z,-5.48
2023-01-12T20:01:24.958Z,-5.47
2023-01-12T20:03:54.984Z,-5.45
2023-01-12T20:06:22.678Z,-5.46
2023-01-12T20:08:49.856Z,-5.44
2023-01-12T20:11:19.018Z,-5.43
2023-01-12T20:13:56.792Z,-5.40
2023-01-12T20:16:32.169Z,-5.40
2023-01-12T20:19:11.284Z,-5.43
2023-01-12T20:22:14.493Z,-5.43
2023-01-12T20:25:11.537Z,-5.42
2023-01-12T20:28:00.922Z,-5.41
2023-01-12T20:30:37.750Z,-5.41
2023-01-12T20:33:06.209Z,-5.43
2023-01-12T20:35:38.612Z,-5.42
2023-01-12T20:38:13.535Z,-5.39
2023-01-12T20:40:46.473Z,-5.38
2023-01-12T20:43:14.149Z,-5.35
2023-01-12T20:45:44.690Z,-5.33
2023-01-12T20:48:15.788Z,-5.31
2023-01-12T20:50:46.637Z,-5.31
2023-01-12T20:53:21.236Z,-5.32
2023-01-12T20:55:59.677Z,-5.31
2023-01-12T20:58:41.637Z,-5.30
2023-01-12T21:01:56.869Z,-5.33
2023-01-12T21:04:49.413Z,-5.31
2023-01-12T21:15:32.581Z,-5.23
2023-01-12T21:18:27.962Z,-5.21
2023-01-12T21:21:41.900Z,-5.21
2023-01-12T21:30:51.915Z,-5.18
2023-01-12T21:45:37.790Z,-5.19
2023-01-12T22:14:37.842Z,-5.09
2023-01-12T22:27:58.326Z,-4.99
2023-01-12T22:31:00.383Z,-4.99
2023-01-12T22:38:16.704Z,-4.98
2023-01-12T22:41:02.578Z,-4.97
2023-01-12T22:44:26.044Z,-4.97
2023-01-12T22:47:05.001Z,-4.99
2023-01-12T22:50:31.170Z,-4.95
2023-01-12T22:53:12.785Z,-4.94
2023-01-12T22:56:01.825Z,-4.93
2023-01-12T22:58:29.264Z,-4.92
2023-01-12T23:01:17.169Z,-4.94
2023-01-12T23:04:01.088Z,-4.93
2023-01-12T23:06:54.394Z,-4.94
2023-01-12T23:09:33.436Z,-4.92
2023-01-12T23:12:02.706Z,-4.88
2023-01-12T23:14:43.577Z,-4.85
2023-01-12T23:17:16.549Z,-4.83
2023-01-12T23:23:36.164Z,-4.77
2023-01-12T23:29:58.445Z,-4.85
2023-01-12T23:32:44.495Z,-4.84
2023-01-12T23:35:41.637Z,-4.83
2023-01-12T23:38:51.944Z,-4.81
2023-01-12T23:41:28.793Z,-4.80
2023-01-12T23:44:23.655Z,-4.78
2023-01-12T23:47:19.040Z,-4.79
2023-01-12T23:50:01.649Z,-4.77
2023-01-12T23:52:33.875Z,-4.75
2023-01-12T23:55:35.130Z,-4.77
2023-01-12T23:58:19.387Z,-4.76
